Time;durP1;ratioP1;P1;durP2;ratioP2;P2;SDS_P1;SDS_P2;PMS_P1;PMS_P2;Temp;Humidity;BMP_temperature;BMP_pressure;BME280_temperature;BME280_humidity;BME280_pressure;Samples;Min_cycle;Max_cycle;Signal;HPM_P1;HPM_P2
2021/10/11 00:01:51;;;;;;;17.90;12.17;;;9.60;99.90;;;;;;5001514;28;20201;-61
2021/10/11 00:04:16;;;;;;;15.70;11.20;;;9.80;99.90;;;;;;5004025;28;20560;-61
2021/10/11 00:06:44;;;;;;;14.53;12.00;;;9.90;99.90;;;;;;5000420;28;20263;-61
2021/10/11 00:09:10;;;;;;;17.93;12.97;;;10.00;99.90;;;;;;4999577;28;20189;-61
2021/10/11 00:11:36;;;;;;;14.77;11.47;;;9.80;99.90;;;;;;5019727;28;20432;-61
2021/10/11 00:14:02;;;;;;;15.20;12.03;;;9.90;99.90;;;;;;5003811;28;20220;-61
2021/10/11 00:16:28;;;;;;;15.63;11.53;;;9.90;99.90;;;;;;5003998;28;20652;-60
2021/10/11 00:18:55;;;;;;;16.90;12.67;;;9.80;99.90;;;;;;5004020;28;20470;-61
2021/10/11 00:21:21;;;;;;;19.23;13.90;;;10.10;99.90;;;;;;5004464;28;20225;-61
2021/10/11 00:23:46;;;;;;;18.70;12.07;;;10.00;99.90;;;;;;5002785;28;20511;-61
2021/10/11 00:26:12;;;;;;;18.40;12.30;;;10.10;99.90;;;;;;4997909;28;20213;-61
2021/10/11 00:28:38;;;;;;;18.20;12.23;;;10.40;99.90;;;;;;4999208;28;20212;-61
2021/10/11 00:31:03;;;;;;;14.37;11.33;;;10.50;99.90;;;;;;5006634;28;20184;-62
2021/10/11 00:33:29;;;;;;;15.47;11.20;;;10.40;99.90;;;;;;5001945;28;20656;-61
2021/10/11 00:35:55;;;;;;;18.07;11.53;;;10.30;99.90;;;;;;5001525;28;20764;-61
2021/10/11 00:38:20;;;;;;;16.73;12.00;;;10.10;99.90;;;;;;5007050;28;20218;-62
2021/10/11 00:40:46;;;;;;;17.63;12.90;;;9.80;99.90;;;;;;4999210;28;20452;-61
2021/10/11 00:43:12;;;;;;;16.43;11.93;;;10.00;99.90;;;;;;4997796;28;20216;-61
2021/10/11 00:45:38;;;;;;;14.33;11.83;;;10.10;99.90;;;;;;5005618;28;20463;-61
2021/10/11 00:48:04;;;;;;;15.93;12.37;;;10.10;99.90;;;;;;5006911;28;20236;-61
2021/10/11 00:50:32;;;;;;;16.63;12.30;;;9.90;99.90;;;;;;5005480;28;20196;-61
2021/10/11 00:52:57;;;;;;;17.10;12.40;;;9.40;99.90;;;;;;5009021;28;20559;-60
2021/10/11 00:55:24;;;;;;;17.80;11.43;;;9.60;99.90;;;;;;5006356;28;20528;-61
2021/10/11 00:57:50;;;;;;;16.43;12.23;;;9.20;99.90;;;;;;5002468;28;20251;-61
2021/10/11 01:00:18;;;;;;;18.37;12.30;;;9.50;99.90;;;;;;5006770;28;20476;-60
2021/10/11 01:02:43;;;;;;;14.80;11.73;;;9.50;99.90;;;;;;5000888;28;20202;-61
2021/10/11 01:05:09;;;;;;;18.27;13.00;;;9.30;99.90;;;;;;5007652;28;20864;-60
2021/10/11 01:07:35;;;;;;;17.53;10.87;;;9.00;99.90;;;;;;5006597;28;20213;-60
2021/10/11 01:10:01;;;;;;;11.63;10.20;;;8.90;99.90;;;;;;5008522;28;20252;-60
2021/10/11 01:12:27;;;;;;;13.33;10.30;;;8.90;99.90;;;;;;5008617;28;20201;-60
2021/10/11 01:14:53;;;;;;;17.73;12.00;;;9.10;99.90;;;;;;5005660;28;20551;-61
2021/10/11 01:17:18;;;;;;;15.83;11.23;;;9.20;99.90;;;;;;5004076;28;21041;-61
2021/10/11 01:19:49;;;;;;;12.07;10.10;;;9.20;99.90;;;;;;5007464;28;20222;-62
2021/10/11 01:22:18;;;;;;;11.57;9.10;;;9.50;99.90;;;;;;5000990;28;20207;-60
2021/10/11 01:24:44;;;;;;;12.63;10.10;;;9.40;99.90;;;;;;5002211;28;20548;-61
2021/10/11 01:27:10;;;;;;;11.20;9.37;;;9.50;99.90;;;;;;5008055;28;20467;-61
2021/10/11 01:29:35;;;;;;;11.90;9.10;;;9.60;99.90;;;;;;5007799;28;20460;-62
2021/10/11 01:32:01;;;;;;;15.97;10.80;;;9.60;99.90;;;;;;5004409;28;20185;-61
2021/10/11 01:34:27;;;;;;;15.27;10.20;;;9.80;99.90;;;;;;5004902;28;20573;-61
2021/10/11 01:36:53;;;;;;;15.53;9.80;;;9.90;99.90;;;;;;5005442;28;20656;-61
2021/10/11 01:39:18;;;;;;;14.50;10.47;;;9.50;99.90;;;;;;5005809;28;20200;-61
2021/10/11 01:41:44;;;;;;;16.90;9.43;;;9.70;99.90;;;;;;5005205;28;20276;-61
2021/10/11 01:44:09;;;;;;;15.17;10.80;;;9.90;99.90;;;;;;5000585;28;20240;-62
2021/10/11 01:46:36;;;;;;;14.27;9.80;;;9.70;99.90;;;;;;5006845;28;20228;-62
2021/10/11 01:49:03;;;;;;;13.73;9.80;;;9.50;99.90;;;;;;5002746;28;20209;-60
2021/10/11 01:51:28;;;;;;;14.50;10.23;;;9.50;99.90;;;;;;5002492;28;20445;-60
2021/10/11 01:53:54;;;;;;;13.13;9.23;;;9.30;99.90;;;;;;5006228;28;20444;-60
2021/10/11 01:56:20;;;;;;;11.60;9.50;;;9.20;99.90;;;;;;5009419;28;20184;-60
2021/10/11 01:58:45;;;;;;;13.10;11.00;;;8.90;99.90;;;;;;5008428;28;20217;-61
2021/10/11 02:01:11;;;;;;;15.53;10.40;;;8.90;99.90;;;;;;4999933;28;20194;-61
2021/10/11 02:03:37;;;;;;;13.17;10.40;;;8.80;99.90;;;;;;5004040;28;20220;-62
2021/10/11 02:06:02;;;;;;;18.43;11.03;;;8.50;99.90;;;;;;5004154;28;20239;-61
2021/10/11 02:08:28;;;;;;;11.93;9.70;;;8.70;99.90;;;;;;5003729;28;20319;-60
2021/10/11 02:10:54;;;;;;;13.67;10.50;;;8.60;99.90;;;;;;5004133;28;20223;-61
2021/10/11 02:13:19;;;;;;;13.87;10.17;;;8.60;99.90;;;;;;5006999;28;20611;-62
2021/10/11 02:15:45;;;;;;;11.30;9.43;;;8.80;99.90;;;;;;5003312;28;20205;-61
2021/10/11 02:18:11;;;;;;;13.37;9.10;;;8.70;99.90;;;;;;5004071;28;20258;-61
2021/10/11 02:20:36;;;;;;;13.23;9.50;;;8.70;99.90;;;;;;5008797;28;20338;-61
2021/10/11 02:23:04;;;;;;;11.80;9.43;;;8.70;99.90;;;;;;5004879;28;20269;-60
2021/10/11 02:25:29;;;;;;;10.10;9.00;;;9.00;99.90;;;;;;5001565;28;20213;-60
2021/10/11 02:27:55;;;;;;;17.10;12.27;;;9.30;99.90;;;;;;5005494;28;20474;-61
2021/10/11 02:30:21;;;;;;;11.80;10.43;;;9.20;99.90;;;;;;4998802;28;20205;-61
2021/10/11 02:32:46;;;;;;;15.70;10.20;;;9.00;99.90;;;;;;5007051;28;20194;-60
2021/10/11 02:35:13;;;;;;;12.10;10.00;;;9.00;99.90;;;;;;5005402;28;20622;-61
2021/10/11 02:37:39;;;;;;;14.00;9.57;;;8.80;99.90;;;;;;5002676;28;20216;-61
2021/10/11 02:40:05;;;;;;;12.80;10.43;;;8.60;99.90;;;;;;5005457;28;20967;-60
2021/10/11 02:42:31;;;;;;;13.47;10.60;;;8.30;99.90;;;;;;4999614;28;20451;-61
2021/10/11 02:44:57;;;;;;;12.97;9.90;;;8.20;99.90;;;;;;5004487;28;20804;-61
2021/10/11 02:47:22;;;;;;;12.50;9.60;;;7.90;99.90;;;;;;4995496;28;20341;-61
2021/10/11 02:49:48;;;;;;;17.17;10.30;;;7.90;99.90;;;;;;5003070;28;20196;-60
2021/10/11 02:52:13;;;;;;;14.13;10.23;;;7.70;99.90;;;;;;5004517;28;20185;-60
2021/10/11 02:54:42;;;;;;;11.93;10.13;;;7.90;99.90;;;;;;5000213;28;20199;-61
2021/10/11 02:57:07;;;;;;;15.03;10.17;;;8.40;99.90;;;;;;5000713;28;20215;-60
2021/10/11 02:59:33;;;;;;;11.97;10.30;;;8.80;99.90;;;;;;5007390;28;20432;-60
2021/10/11 03:01:58;;;;;;;11.63;9.50;;;8.80;99.90;;;;;;5000733;28;21073;-62
2021/10/11 03:04:24;;;;;;;15.77;9.83;;;8.60;99.90;;;;;;4999848;28;20308;-61
2021/10/11 03:06:50;;;;;;;17.27;10.60;;;8.30;99.90;;;;;;5006103;28;20194;-61
2021/10/11 03:09:15;;;;;;;14.20;9.50;;;8.30;99.90;;;;;;5001172;28;20192;-61
2021/10/11 03:11:41;;;;;;;13.50;9.50;;;8.70;99.90;;;;;;5003357;28;20243;-62
2021/10/11 03:14:06;;;;;;;13.90;10.07;;;8.80;99.90;;;;;;5007049;28;20650;-61
2021/10/11 03:16:34;;;;;;;12.57;8.80;;;9.00;99.90;;;;;;5002478;28;20194;-60
2021/10/11 03:18:59;;;;;;;16.07;9.63;;;8.90;99.90;;;;;;5003989;28;20269;-60
2021/10/11 03:21:25;;;;;;;15.00;10.53;;;8.80;99.90;;;;;;4999386;28;20531;-62
2021/10/11 03:23:51;;;;;;;10.63;9.50;;;8.60;99.90;;;;;;5001935;28;20201;-60
2021/10/11 03:26:19;;;;;;;11.93;10.03;;;8.60;99.90;;;;;;5001242;28;20274;-60
2021/10/11 03:28:45;;;;;;;12.53;10.50;;;8.80;99.90;;;;;;5001295;28;20856;-60
2021/10/11 03:31:10;;;;;;;17.57;11.07;;;8.70;99.90;;;;;;5003729;28;20471;-61
2021/10/11 03:33:36;;;;;;;14.53;10.00;;;8.90;99.90;;;;;;5003909;28;20487;-60
2021/10/11 03:36:02;;;;;;;11.63;9.27;;;9.00;99.90;;;;;;5004228;28;20191;-61
2021/10/11 03:38:28;;;;;;;12.13;10.27;;;9.00;99.90;;;;;;5001863;28;20698;-61
2021/10/11 03:40:53;;;;;;;13.03;10.07;;;9.00;99.90;;;;;;5003922;28;20441;-61
2021/10/11 03:43:19;;;;;;;12.80;10.57;;;8.90;99.90;;;;;;5000463;28;20192;-61
2021/10/11 03:45:45;;;;;;;11.90;10.07;;;8.80;99.90;;;;;;5003993;28;20231;-61
2021/10/11 03:48:10;;;;;;;15.03;10.73;;;8.60;99.90;;;;;;5004208;28;20306;-61
2021/10/11 03:50:36;;;;;;;15.23;10.53;;;8.70;99.90;;;;;;4998816;28;20229;-61
2021/10/11 03:53:02;;;;;;;12.87;10.30;;;8.60;99.90;;;;;;5003531;28;20238;-60
2021/10/11 03:55:27;;;;;;;15.77;11.47;;;8.60;99.90;;;;;;5001570;28;20737;-62
2021/10/11 03:57:53;;;;;;;13.80;10.53;;;8.40;99.90;;;;;;5000298;28;20221;-62
2021/10/11 04:00:18;;;;;;;15.20;10.50;;;8.30;99.90;;;;;;5001482;28;20192;-61
2021/10/11 04:02:44;;;;;;;14.03;10.57;;;8.30;99.90;;;;;;5003763;28;20710;-60
2021/10/11 04:05:13;;;;;;;13.83;10.60;;;8.40;99.90;;;;;;5001418;28;20205;-61
2021/10/11 04:07:42;;;;;;;14.23;11.57;;;8.60;99.90;;;;;;4999968;28;20209;-61
2021/10/11 04:10:09;;;;;;;13.47;10.63;;;8.70;99.90;;;;;;4995940;28;20439;-61
2021/10/11 04:12:36;;;;;;;16.10;11.33;;;8.80;99.90;;;;;;5004050;28;20813;-61
2021/10/11 04:15:05;;;;;;;17.13;11.60;;;9.00;99.90;;;;;;5001933;28;20432;-61
2021/10/11 04:17:30;;;;;;;15.13;11.77;;;8.60;99.90;;;;;;5001183;28;20469;-61
2021/10/11 04:19:56;;;;;;;13.60;11.20;;;8.30;99.90;;;;;;5005245;28;20439;-61
2021/10/11 04:22:22;;;;;;;13.07;11.43;;;8.10;99.90;;;;;;5008395;28;20196;-62
2021/10/11 04:24:48;;;;;;;20.03;10.93;;;8.10;99.90;;;;;;5004481;28;20331;-61
2021/10/11 04:27:14;;;;;;;15.37;11.80;;;8.20;99.90;;;;;;5007683;28;20531;-61
2021/10/11 04:29:40;;;;;;;14.63;11.10;;;7.80;99.90;;;;;;5005535;28;20829;-61
2021/10/11 04:32:06;;;;;;;15.60;11.60;;;7.90;99.90;;;;;;5005167;28;20481;-60
2021/10/11 04:34:35;;;;;;;16.07;11.47;;;7.60;99.90;;;;;;5005025;28;20243;-60
2021/10/11 04:37:00;;;;;;;12.53;9.97;;;7.40;99.90;;;;;;5006254;28;20426;-61
2021/10/11 04:39:26;;;;;;;15.53;11.93;;;7.50;99.90;;;;;;5003076;28;20812;-61
2021/10/11 04:41:51;;;;;;;14.53;11.00;;;7.60;99.90;;;;;;5008025;28;20229;-61
2021/10/11 04:44:17;;;;;;;15.57;12.17;;;7.50;99.90;;;;;;5004987;28;20607;-61
2021/10/11 04:46:42;;;;;;;22.63;11.80;;;7.50;99.90;;;;;;5008810;28;20223;-61
2021/10/11 04:49:08;;;;;;;16.00;11.77;;;7.20;99.90;;;;;;5005079;28;20240;-60
2021/10/11 04:51:34;;;;;;;16.80;11.30;;;7.10;99.90;;;;;;5000507;28;20278;-62
2021/10/11 04:53:59;;;;;;;16.50;11.47;;;7.00;99.90;;;;;;5011297;28;20287;-62
2021/10/11 04:56:25;;;;;;;13.03;10.07;;;7.10;99.90;;;;;;5003758;28;20204;-62
2021/10/11 04:58:50;;;;;;;17.67;10.97;;;7.20;99.90;;;;;;5006870;28;20212;-62
2021/10/11 05:01:17;;;;;;;29.53;11.37;;;7.40;99.90;;;;;;5006954;28;20280;-62
2021/10/11 05:03:43;;;;;;;15.23;11.23;;;7.40;99.90;;;;;;5003126;28;20233;-61
2021/10/11 05:06:09;;;;;;;15.10;10.90;;;7.30;99.90;;;;;;5007640;28;20866;-60
2021/10/11 05:08:34;;;;;;;17.10;10.70;;;7.40;99.90;;;;;;5004577;28;20997;-61
2021/10/11 05:11:00;;;;;;;12.80;10.83;;;7.50;99.90;;;;;;5006224;28;20656;-60
2021/10/11 05:13:26;;;;;;;17.13;11.03;;;7.70;99.90;;;;;;5005607;28;20665;-60
2021/10/11 05:15:52;;;;;;;14.87;10.43;;;7.60;99.90;;;;;;5004844;28;20229;-60
2021/10/11 05:18:17;;;;;;;13.33;9.33;;;7.50;99.90;;;;;;5001013;28;20225;-65
2021/10/11 05:20:50;;;;;;;13.23;9.60;;;7.50;99.90;;;;;;5006173;28;20447;-66
2021/10/11 05:23:18;;;;;;;16.10;10.97;;;7.60;99.90;;;;;;5004398;28;20200;-65
2021/10/11 05:25:44;;;;;;;20.50;11.10;;;7.40;99.90;;;;;;5003154;28;20781;-65
2021/10/11 05:28:10;;;;;;;19.40;10.40;;;7.30;99.90;;;;;;5003462;28;20505;-61
2021/10/11 05:30:39;;;;;;;14.37;9.80;;;7.40;99.90;;;;;;5005614;28;20450;-61
2021/10/11 05:33:05;;;;;;;11.20;9.10;;;7.40;99.90;;;;;;5005446;28;20188;-60
2021/10/11 05:35:30;;;;;;;13.23;9.63;;;7.30;99.90;;;;;;5007630;28;20547;-66
2021/10/11 05:37:56;;;;;;;15.33;9.57;;;7.30;99.90;;;;;;5006882;28;20741;-65
2021/10/11 05:40:22;;;;;;;12.90;10.27;;;7.30;99.90;;;;;;5003214;28;20430;-65
2021/10/11 05:42:47;;;;;;;14.50;10.80;;;7.20;99.90;;;;;;5004932;28;20251;-66
2021/10/11 05:45:13;;;;;;;13.50;10.83;;;7.10;99.90;;;;;;5000728;28;20364;-65
2021/10/11 05:47:39;;;;;;;13.27;9.80;;;7.20;99.90;;;;;;5007892;28;20213;-65
2021/10/11 05:50:07;;;;;;;14.87;10.67;;;7.50;99.90;;;;;;5008309;28;20181;-65
2021/10/11 05:52:33;;;;;;;15.93;10.53;;;7.50;99.90;;;;;;5006930;28;20284;-66
2021/10/11 05:54:59;;;;;;;14.00;9.87;;;7.50;99.90;;;;;;5008604;28;20528;-64
2021/10/11 05:57:24;;;;;;;14.27;11.23;;;7.30;99.90;;;;;;5005435;28;20463;-60
2021/10/11 05:59:50;;;;;;;16.17;10.70;;;7.10;99.90;;;;;;5005116;28;20197;-60
2021/10/11 06:02:15;;;;;;;17.80;11.00;;;6.90;99.90;;;;;;4999052;28;20189;-66
2021/10/11 06:04:41;;;;;;;14.80;10.33;;;7.00;99.90;;;;;;5004645;28;20225;-66
2021/10/11 06:07:07;;;;;;;16.03;11.30;;;7.00;99.90;;;;;;5004118;28;20751;-66
2021/10/11 06:09:32;;;;;;;17.00;11.40;;;7.10;99.90;;;;;;5004402;28;20224;-66
2021/10/11 06:11:58;;;;;;;14.23;11.33;;;7.00;99.90;;;;;;5004471;28;20197;-65
2021/10/11 06:14:24;;;;;;;19.50;12.03;;;7.20;99.90;;;;;;5005142;28;20208;-68
2021/10/11 06:16:49;;;;;;;16.03;12.13;;;7.30;99.90;;;;;;5002666;28;20201;-62
2021/10/11 06:19:15;;;;;;;17.83;11.70;;;7.20;99.90;;;;;;5004621;28;20519;-60
2021/10/11 06:21:41;;;;;;;17.30;10.83;;;6.90;99.90;;;;;;4999019;28;20202;-62
2021/10/11 06:24:09;;;;;;;20.90;12.70;;;7.00;99.90;;;;;;5005989;28;20262;-61
2021/10/11 06:26:34;;;;;;;20.57;12.07;;;6.90;99.90;;;;;;5004458;28;20219;-62
2021/10/11 06:29:00;;;;;;;17.53;13.03;;;7.10;99.90;;;;;;5004998;28;20456;-62
2021/10/11 06:31:26;;;;;;;24.30;13.23;;;6.80;99.90;;;;;;5005054;28;20653;-62
2021/10/11 06:33:51;;;;;;;21.40;13.23;;;6.70;99.90;;;;;;5019706;23;20238;-58
2021/10/11 06:36:17;;;;;;;21.13;14.00;;;6.70;99.90;;;;;;5008070;28;20194;-61
2021/10/11 06:38:43;;;;;;;16.50;12.53;;;6.70;99.90;;;;;;5005681;28;20209;-63
2021/10/11 06:41:08;;;;;;;19.57;12.30;;;6.80;99.90;;;;;;5005536;28;20197;-59
2021/10/11 06:43:34;;;;;;;19.30;13.00;;;6.70;99.90;;;;;;5013102;28;20255;-62
2021/10/11 06:45:59;;;;;;;18.03;13.03;;;6.50;99.90;;;;;;5009704;28;20197;-63
2021/10/11 06:48:25;;;;;;;17.00;13.20;;;6.90;99.90;;;;;;5006537;28;20474;-62
2021/10/11 06:50:51;;;;;;;19.47;13.07;;;7.30;99.90;;;;;;5007856;28;20581;-58
2021/10/11 06:53:16;;;;;;;20.63;14.60;;;7.30;99.90;;;;;;5005257;28;20180;-59
2021/10/11 06:55:43;;;;;;;17.97;12.57;;;7.40;99.90;;;;;;5010661;28;20354;-59
2021/10/11 06:58:09;;;;;;;19.60;12.40;;;7.40;99.90;;;;;;5010041;28;20666;-58
2021/10/11 07:00:36;;;;;;;18.73;11.90;;;7.40;99.90;;;;;;5008492;28;20469;-63
2021/10/11 07:03:04;;;;;;;15.60;11.80;;;7.30;99.90;;;;;;5007433;28;20431;-63
2021/10/11 07:05:30;;;;;;;18.50;13.00;;;7.10;99.90;;;;;;5005698;28;20470;-59
2021/10/11 07:07:58;;;;;;;15.60;11.53;;;7.60;99.90;;;;;;5009224;28;20583;-63
2021/10/11 07:10:24;;;;;;;14.90;12.03;;;7.50;99.90;;;;;;5005050;28;20447;-64
2021/10/11 07:12:51;;;;;;;15.40;11.50;;;7.20;99.90;;;;;;5014973;28;20495;-63
2021/10/11 07:15:18;;;;;;;16.37;10.90;;;7.30;99.90;;;;;;5005769;28;20452;-59
2021/10/11 07:17:44;;;;;;;16.00;12.07;;;7.50;99.90;;;;;;5006826;28;20455;-62
2021/10/11 07:20:10;;;;;;;15.40;11.70;;;7.60;99.90;;;;;;5004708;28;20460;-64
2021/10/11 07:22:36;;;;;;;14.83;11.10;;;7.60;99.90;;;;;;5010148;28;20192;-59
2021/10/11 07:25:02;;;;;;;16.03;11.70;;;7.60;99.90;;;;;;5006710;28;20864;-59
2021/10/11 07:27:28;;;;;;;18.53;12.67;;;7.70;99.90;;;;;;5005916;28;20201;-63
2021/10/11 07:29:53;;;;;;;16.67;12.07;;;7.80;99.90;;;;;;5005988;28;20442;-59
2021/10/11 07:32:19;;;;;;;14.63;11.37;;;7.80;99.90;;;;;;5007568;28;20686;-59
2021/10/11 07:34:44;;;;;;;17.47;12.40;;;7.80;99.90;;;;;;5006173;28;20203;-63
2021/10/11 07:37:10;;;;;;;18.40;13.50;;;7.90;99.90;;;;;;5008202;28;20209;-64
2021/10/11 07:39:36;;;;;;;17.97;13.60;;;7.80;99.90;;;;;;5005469;28;20256;-63
2021/10/11 07:42:02;;;;;;;19.53;14.17;;;7.90;99.90;;;;;;5002921;28;20439;-59
2021/10/11 07:44:27;;;;;;;17.90;13.60;;;7.80;99.90;;;;;;5006106;28;20228;-59
2021/10/11 07:46:54;;;;;;;19.17;15.17;;;8.00;99.90;;;;;;5002696;28;20196;-59
2021/10/11 07:49:21;;;;;;;22.27;15.57;;;8.00;99.90;;;;;;5004549;28;21273;-58
2021/10/11 07:51:47;;;;;;;25.30;13.70;;;8.00;99.90;;;;;;5004486;28;20471;-59
2021/10/11 07:54:16;;;;;;;21.90;16.70;;;8.00;99.90;;;;;;5004306;28;20819;-58
2021/10/11 07:56:42;;;;;;;22.23;17.17;;;8.10;99.90;;;;;;5004947;28;20789;-63
2021/10/11 07:59:08;;;;;;;23.27;16.83;;;8.20;99.90;;;;;;4999920;28;20470;-63
2021/10/11 08:01:35;;;;;;;22.60;16.50;;;8.30;99.90;;;;;;4998143;28;21069;-64
2021/10/11 08:04:02;;;;;;;24.37;15.87;;;8.50;99.90;;;;;;5006035;28;20212;-59
2021/10/11 08:06:29;;;;;;;24.13;16.03;;;8.50;99.90;;;;;;5009229;28;20523;-64
2021/10/11 08:08:56;;;;;;;24.00;15.53;;;8.70;99.90;;;;;;5011836;28;20507;-64
2021/10/11 08:11:21;;;;;;;21.80;16.87;;;8.80;99.90;;;;;;5010269;28;20940;-58
2021/10/11 08:13:47;;;;;;;33.03;15.97;;;8.70;99.90;;;;;;5007965;28;20553;-58
2021/10/11 08:16:13;;;;;;;21.73;16.33;;;8.90;99.90;;;;;;5004870;28;20197;-59
2021/10/11 08:18:39;;;;;;;22.10;16.53;;;9.00;99.90;;;;;;5009193;28;20287;-58
2021/10/11 08:21:04;;;;;;;21.40;15.00;;;9.20;99.90;;;;;;5008631;28;20435;-59
2021/10/11 08:23:35;;;;;;;23.50;16.07;;;9.30;99.90;;;;;;5008062;28;20236;-61
2021/10/11 08:26:02;;;;;;;23.47;16.43;;;9.30;99.90;;;;;;5007034;28;20640;-62
2021/10/11 08:28:27;;;;;;;21.67;16.57;;;9.30;99.90;;;;;;5005205;28;20583;-64
2021/10/11 08:30:54;;;;;;;24.40;16.50;;;9.30;99.90;;;;;;5003969;28;20494;-63
2021/10/11 08:33:20;;;;;;;22.33;17.40;;;9.40;99.90;;;;;;5005760;28;20209;-63
2021/10/11 08:35:45;;;;;;;24.00;17.10;;;9.40;99.90;;;;;;5004935;28;20464;-58
2021/10/11 08:38:11;;;;;;;21.70;15.97;;;9.50;99.90;;;;;;5002640;28;20723;-59
2021/10/11 08:40:37;;;;;;;25.80;18.30;;;9.60;99.90;;;;;;5006180;28;20652;-57
2021/10/11 08:43:02;;;;;;;25.13;18.33;;;9.60;99.90;;;;;;5007942;28;20715;-64
2021/10/11 08:45:28;;;;;;;25.33;18.73;;;9.70;99.90;;;;;;5004761;28;20217;-64
2021/10/11 08:47:54;;;;;;;27.40;20.20;;;9.60;99.90;;;;;;5002884;28;20240;-63
2021/10/11 08:50:20;;;;;;;27.50;18.70;;;9.70;99.90;;;;;;5002788;28;20927;-64
2021/10/11 08:52:47;;;;;;;23.33;18.40;;;9.80;99.90;;;;;;5003068;28;20194;-64
2021/10/11 08:55:13;;;;;;;28.90;16.80;;;9.80;99.90;;;;;;5003079;28;20452;-54
2021/10/11 08:57:39;;;;;;;25.17;19.27;;;9.80;99.90;;;;;;5002507;28;20489;-56
2021/10/11 09:00:18;;;;;;;30.00;19.57;;;9.90;99.90;;;;;;5004270;28;20189;-62
2021/10/11 09:02:56;;;;;;;26.10;19.10;;;9.90;99.90;;;;;;5010230;28;20690;-57
2021/10/11 09:05:34;;;;;;;27.50;20.17;;;10.00;99.90;;;;;;4999809;28;20479;-57
2021/10/11 09:08:07;;;;;;;25.40;21.10;;;10.00;99.90;;;;;;5009221;28;20455;-57
2021/10/11 09:10:56;;;;;;;32.00;21.37;;;10.00;99.90;;;;;;5011369;28;20934;-63
2021/10/11 09:13:28;;;;;;;27.27;20.90;;;10.00;99.90;;;;;;5011669;28;20435;-65
2021/10/11 09:16:30;;;;;;;27.00;20.53;;;10.10;99.90;;;;;;5012586;28;20452;-63
2021/10/11 09:19:08;;;;;;;25.10;19.77;;;10.10;99.90;;;;;;5001493;28;20869;-58
2021/10/11 09:21:36;;;;;;;33.17;21.93;;;10.00;99.90;;;;;;5012026;28;20491;-58
2021/10/11 09:24:13;;;;;;;26.53;19.80;;;10.10;99.90;;;;;;5013663;28;20960;-59
2021/10/11 09:27:02;;;;;;;25.77;20.00;;;10.20;99.90;;;;;;5010988;28;20464;-59
2021/10/11 09:29:39;;;;;;;27.73;20.37;;;10.40;99.90;;;;;;5013191;28;20436;-59
2021/10/11 09:32:07;;;;;;;31.27;22.20;;;10.50;99.90;;;;;;5008468;28;20435;-62
2021/10/11 09:34:35;;;;;;;26.60;19.53;;;10.50;99.90;;;;;;5014128;28;20444;-64
2021/10/11 09:37:02;;;;;;;31.00;20.40;;;10.50;99.90;;;;;;5007936;28;20428;-58
2021/10/11 09:39:29;;;;;;;31.07;22.07;;;10.60;99.90;;;;;;5006670;28;20498;-59
2021/10/11 09:41:56;;;;;;;26.13;20.47;;;10.70;99.90;;;;;;5006862;28;20441;-64
2021/10/11 09:44:23;;;;;;;28.80;20.70;;;10.80;99.90;;;;;;5010237;28;20479;-59
2021/10/11 09:46:55;;;;;;;28.83;20.17;;;10.80;99.90;;;;;;5006483;28;20459;-60
2021/10/11 09:49:26;;;;;;;28.77;20.77;;;10.90;99.90;;;;;;5007799;28;20436;-58
2021/10/11 09:51:53;;;;;;;26.23;19.53;;;10.90;99.90;;;;;;5008577;28;20439;-59
2021/10/11 09:54:19;;;;;;;31.83;21.60;;;11.00;99.90;;;;;;5005104;28;20435;-59
2021/10/11 09:56:46;;;;;;;33.53;20.43;;;11.00;99.90;;;;;;5008193;28;20446;-59
2021/10/11 09:59:12;;;;;;;26.93;21.07;;;11.10;99.90;;;;;;5007420;28;20456;-64
2021/10/11 10:01:42;;;;;;;22.67;18.73;;;11.20;99.90;;;;;;5006306;28;20436;-58
2021/10/11 10:04:12;;;;;;;32.57;21.90;;;11.40;99.90;;;;;;5004423;28;20468;-59
2021/10/11 10:06:38;;;;;;;25.20;18.57;;;11.40;99.90;;;;;;5021988;28;20536;-59
2021/10/11 10:09:08;;;;;;;26.30;19.67;;;11.50;99.90;;;;;;5007268;28;20511;-58
2021/10/11 10:11:33;;;;;;;30.60;19.27;;;11.60;99.90;;;;;;5007859;28;20502;-59
2021/10/11 10:14:01;;;;;;;22.87;17.93;;;11.70;99.90;;;;;;5006935;28;20435;-59
2021/10/11 10:16:29;;;;;;;26.83;19.67;;;11.70;99.90;;;;;;5005881;28;20576;-58
2021/10/11 10:18:55;;;;;;;26.60;18.47;;;11.80;99.90;;;;;;5005599;28;20474;-59
2021/10/11 10:21:31;;;;;;;23.10;18.37;;;11.90;99.90;;;;;;5006392;28;20865;-57
2021/10/11 10:23:57;;;;;;;23.80;17.67;;;12.10;99.90;;;;;;5005976;28;20226;-59
2021/10/11 10:26:34;;;;;;;26.30;18.97;;;12.30;99.90;;;;;;5006735;28;20980;-62
2021/10/11 10:29:24;;;;;;;22.00;17.37;;;12.40;99.90;;;;;;5003327;28;20471;-58
2021/10/11 10:31:49;;;;;;;24.43;18.03;;;12.50;99.90;;;;;;5008464;28;20686;-65
2021/10/11 10:34:20;;;;;;;22.60;17.13;;;12.60;99.90;;;;;;5008683;28;20431;-59
2021/10/11 10:36:59;;;;;;;23.30;18.03;;;12.70;99.90;;;;;;5003294;28;20198;-58
2021/10/11 10:39:36;;;;;;;26.27;17.70;;;12.70;99.90;;;;;;5010390;28;20423;-65
2021/10/11 10:42:02;;;;;;;22.80;17.70;;;12.70;99.90;;;;;;5009800;28;20467;-59
2021/10/11 10:44:28;;;;;;;20.70;16.33;;;12.80;99.90;;;;;;5007828;28;20496;-58
2021/10/11 10:46:56;;;;;;;28.27;17.40;;;13.00;99.90;;;;;;5008606;28;20623;-59
2021/10/11 10:49:28;;;;;;;21.70;17.20;;;13.00;99.90;;;;;;5008379;28;20189;-61
2021/10/11 10:51:53;;;;;;;22.90;16.63;;;13.00;99.90;;;;;;5008766;28;20440;-58
2021/10/11 10:54:30;;;;;;;23.60;18.50;;;13.00;99.90;;;;;;5008664;28;20437;-59
2021/10/11 10:56:56;;;;;;;22.03;16.40;;;13.10;99.90;;;;;;4999049;28;21665;-60
2021/10/11 10:59:25;;;;;;;21.87;17.60;;;13.20;99.90;;;;;;5004598;28;20452;-56
2021/10/11 11:02:08;;;;;;;20.87;16.13;;;13.30;99.90;;;;;;5005049;28;20201;-57
2021/10/11 11:04:35;;;;;;;18.97;16.00;;;13.30;99.90;;;;;;5004978;28;21262;-58
2021/10/11 11:07:04;;;;;;;23.50;17.20;;;13.40;99.90;;;;;;5009021;28;20447;-58
2021/10/11 11:09:41;;;;;;;28.57;18.90;;;13.40;99.90;;;;;;5007947;28;20467;-58
2021/10/11 11:12:07;;;;;;;24.93;18.37;;;13.40;99.90;;;;;;5006324;28;20807;-58
2021/10/11 11:14:34;;;;;;;24.73;17.83;;;13.50;99.90;;;;;;5006638;28;20447;-61
2021/10/11 11:17:00;;;;;;;22.67;16.63;;;13.40;99.90;;;;;;5004901;28;20201;-65
2021/10/11 11:19:36;;;;;;;23.70;18.10;;;13.60;99.90;;;;;;5005044;28;20947;-64
2021/10/11 11:22:01;;;;;;;24.80;18.20;;;13.70;99.90;;;;;;5003687;28;20192;-64
2021/10/11 11:24:27;;;;;;;24.10;18.07;;;13.80;99.90;;;;;;5005899;28;20503;-65
2021/10/11 11:26:53;;;;;;;23.03;16.83;;;13.90;99.90;;;;;;5004802;28;20285;-64
2021/10/11 11:29:18;;;;;;;20.90;17.50;;;14.00;99.90;;;;;;5005426;28;20187;-65
2021/10/11 11:31:52;;;;;;;23.50;16.73;;;14.20;99.90;;;;;;5005929;28;20204;-65
2021/10/11 11:34:17;;;;;;;21.83;17.37;;;14.30;99.90;;;;;;4998987;28;22171;-66
2021/10/11 11:36:51;;;;;;;24.20;17.97;;;14.20;99.90;;;;;;5006033;28;20530;-65
2021/10/11 11:39:18;;;;;;;19.40;15.30;;;14.20;99.90;;;;;;5006101;28;20209;-65
2021/10/11 11:41:55;;;;;;;23.10;15.93;;;14.10;99.90;;;;;;4992240;28;21858;-65
2021/10/11 11:44:27;;;;;;;20.13;15.97;;;14.40;99.90;;;;;;4997913;28;20472;-65
2021/10/11 11:47:19;;;;;;;21.87;17.13;;;14.40;99.90;;;;;;5003328;28;20447;-66
2021/10/11 11:49:45;;;;;;;23.17;16.60;;;14.20;99.90;;;;;;5003424;28;20851;-62
2021/10/11 11:52:12;;;;;;;19.43;16.07;;;13.90;99.90;;;;;;5003205;28;20452;-63
2021/10/11 11:54:40;;;;;;;24.10;18.00;;;13.90;99.90;;;;;;5008766;28;21001;-63
2021/10/11 11:57:06;;;;;;;23.23;16.90;;;14.00;99.90;;;;;;5006084;28;20486;-63
2021/10/11 11:59:33;;;;;;;26.97;18.60;;;13.90;99.90;;;;;;5004905;28;20954;-63
2021/10/11 12:02:01;;;;;;;22.80;15.53;;;13.80;99.90;;;;;;5003364;28;20454;-62
2021/10/11 12:04:28;;;;;;;25.77;17.10;;;13.90;99.90;;;;;;5005155;28;20494;-59
2021/10/11 12:07:00;;;;;;;20.50;16.20;;;13.80;99.90;;;;;;5004326;28;20437;-59
2021/10/11 12:09:26;;;;;;;22.87;17.57;;;13.80;99.90;;;;;;5007498;28;20490;-60
2021/10/11 12:12:02;;;;;;;24.07;19.33;;;13.70;99.90;;;;;;5009096;28;20448;-60
2021/10/11 12:14:28;;;;;;;21.00;16.30;;;13.60;99.90;;;;;;5008457;28;20476;-65
2021/10/11 12:17:02;;;;;;;21.87;16.60;;;13.50;99.90;;;;;;5003988;28;21232;-63
2021/10/11 12:19:29;;;;;;;23.90;16.40;;;13.40;99.90;;;;;;5002833;28;20439;-63
2021/10/11 12:21:56;;;;;;;21.70;16.00;;;13.50;99.90;;;;;;5008283;28;20950;-65
2021/10/11 12:24:23;;;;;;;22.33;17.00;;;13.50;99.90;;;;;;5002177;28;20994;-64
2021/10/11 12:27:21;;;;;;;23.33;16.63;;;13.40;99.90;;;;;;4998917;28;20455;-63
2021/10/11 12:29:49;;;;;;;26.83;17.50;;;13.60;99.90;;;;;;5006052;28;20459;-62
2021/10/11 12:32:14;;;;;;;20.43;15.80;;;13.60;99.90;;;;;;5017961;22;20464;-60
2021/10/11 12:34:45;;;;;;;25.63;15.37;;;13.70;99.90;;;;;;5022494;28;20944;-61
2021/10/11 12:37:14;;;;;;;23.73;17.20;;;13.80;99.90;;;;;;5022936;28;20207;-61